Celles, Belgium
Current Conditions -  °F | °C
As of 5:00 PM on Saturday 20 Dec 2014 (Local Time) from LFQQ Reporting Station
Broken Clouds Broken Clouds  
Wind Chill: 40°   Ceiling: 3900
Heat Index: 46°   Visibility: 6mi
Dew Point: 37°   Wind: 15mph
Humidity: 71%   Direction: 270°W
Pressure: 30.3"   Gusts: NA
Location:  50.71°N, 3.46°E
Report Text: LFQQ 201600Z 27013KT 9999 BKN039 08/03 Q1026 NOSIG
Loading
Personal Weather Stations






























Interactive Weather Map New forecast layout! Learn more

10-Day Weather Forecast

Advertisements
Track Severe Weather on mobile